createdAt,value
2023-06-26T00:00:38.098Z,39.20
2023-06-26T00:01:41.994Z,39.27
2023-06-26T00:02:45.674Z,39.17
2023-06-26T00:03:49.482Z,38.96
2023-06-26T00:04:53.214Z,39.23
2023-06-26T00:05:56.930Z,39.17
2023-06-26T00:07:00.601Z,39.15
2023-06-26T00:08:04.249Z,38.57
2023-06-26T00:09:08.119Z,39.41
2023-06-26T00:10:11.939Z,39.14
2023-06-26T00:11:17.308Z,39.72
2023-06-26T00:12:20.940Z,38.97
2023-06-26T00:13:25.992Z,39.17
2023-06-26T00:14:29.928Z,38.52
2023-06-26T00:15:33.603Z,38.74
2023-06-26T00:16:37.719Z,38.55
2023-06-26T00:17:41.345Z,39.08
2023-06-26T00:18:45.012Z,39.11
2023-06-26T00:19:48.770Z,39.26
2023-06-26T00:20:52.524Z,38.70
2023-06-26T00:21:56.185Z,39.00
2023-06-26T00:22:59.921Z,38.95
2023-06-26T00:24:03.590Z,38.96
2023-06-26T00:25:07.725Z,38.72
2023-06-26T00:26:11.443Z,38.32
2023-06-26T00:27:16.808Z,38.76
2023-06-26T00:28:20.628Z,38.52
2023-06-26T00:29:24.372Z,38.77
2023-06-26T00:30:28.023Z,39.04
2023-06-26T00:31:31.836Z,38.73
2023-06-26T00:32:35.456Z,38.42
2023-06-26T00:33:39.145Z,38.93
2023-06-26T00:34:42.754Z,38.67
2023-06-26T00:35:46.377Z,38.73
2023-06-26T00:36:50.151Z,38.75
2023-06-26T00:37:53.943Z,38.44
2023-06-26T00:38:57.564Z,38.39
2023-06-26T00:40:01.310Z,38.76
2023-06-26T00:41:04.970Z,38.74
2023-06-26T00:42:09.373Z,38.41
2023-06-26T00:43:15.285Z,39.02
2023-06-26T00:44:18.904Z,38.32
2023-06-26T00:45:30.354Z,38.70
2023-06-26T00:46:41.745Z,39.16
2023-06-26T00:47:45.709Z,38.61
2023-06-26T00:48:50.452Z,38.69
2023-06-26T00:49:54.332Z,38.34
2023-06-26T00:50:58.169Z,39.11
2023-06-26T00:52:01.915Z,39.12
2023-06-26T00:53:05.917Z,39.00
2023-06-26T00:54:09.726Z,39.10
2023-06-26T00:55:14.027Z,39.14
2023-06-26T00:56:19.364Z,38.62
2023-06-26T00:57:23.101Z,38.53
2023-06-26T00:58:28.538Z,38.62
2023-06-26T00:59:32.353Z,38.74
2023-06-26T01:00:36.567Z,39.04
2023-06-26T01:01:40.545Z,38.80
2023-06-26T01:02:44.276Z,38.76
2023-06-26T01:03:50.222Z,39.17
2023-06-26T01:04:54.912Z,38.45
2023-06-26T01:06:00.678Z,39.14
2023-06-26T01:07:05.860Z,39.04
2023-06-26T01:08:10.826Z,38.70
2023-06-26T01:09:14.608Z,38.63
2023-06-26T01:10:18.779Z,38.74
2023-06-26T01:11:22.480Z,38.80
2023-06-26T01:12:26.420Z,38.99
2023-06-26T01:13:36.389Z,38.60
2023-06-26T01:14:40.183Z,38.74
2023-06-26T01:15:44.115Z,38.60
2023-06-26T01:16:48.709Z,38.36
2023-06-26T01:17:53.644Z,38.52
2023-06-26T01:18:57.558Z,38.85
2023-06-26T01:20:02.172Z,38.67
2023-06-26T01:21:06.835Z,38.63
2023-06-26T01:22:20.483Z,38.17
2023-06-26T01:23:31.596Z,38.94
2023-06-26T01:24:38.372Z,38.42
2023-06-26T01:25:52.734Z,38.10
2023-06-26T01:26:59.805Z,37.95
2023-06-26T01:28:04.006Z,38.11
2023-06-26T01:29:09.579Z,38.26
2023-06-26T01:30:14.181Z,38.25
2023-06-26T01:31:20.951Z,37.85
2023-06-26T01:32:25.421Z,38.62
2023-06-26T01:33:29.941Z,37.89
2023-06-26T01:34:33.781Z,37.77
2023-06-26T01:35:38.117Z,38.03
2023-06-26T01:36:41.902Z,38.02
2023-06-26T01:37:45.622Z,37.81
2023-06-26T01:38:49.281Z,37.89
2023-06-26T01:39:53.012Z,37.77
2023-06-26T01:40:56.932Z,37.83
2023-06-26T01:42:02.562Z,37.79
2023-06-26T01:43:07.316Z,37.73
2023-06-26T01:44:19.617Z,38.10
2023-06-26T01:45:29.028Z,38.00
2023-06-26T01:46:38.949Z,38.30
2023-06-26T01:47:51.236Z,38.09
2023-06-26T01:49:02.908Z,38.15
2023-06-26T01:50:12.141Z,38.31
2023-06-26T01:51:19.645Z,38.63
2023-06-26T01:52:27.590Z,38.83
2023-06-26T01:53:38.333Z,38.52
2023-06-26T01:54:55.980Z,37.90
2023-06-26T01:56:07.146Z,38.02
2023-06-26T01:57:13.062Z,38.20
2023-06-26T01:58:17.647Z,37.67
2023-06-26T01:59:22.800Z,37.85
2023-06-26T02:00:27.633Z,38.29
2023-06-26T02:01:32.428Z,37.79
2023-06-26T02:02:37.874Z,37.90
2023-06-26T02:03:41.789Z,38.35
2023-06-26T02:04:45.518Z,37.33
2023-06-26T02:05:49.151Z,37.68
2023-06-26T02:06:52.899Z,37.62
2023-06-26T02:07:56.593Z,37.63
2023-06-26T02:09:00.216Z,37.26
2023-06-26T02:10:04.207Z,37.54
2023-06-26T02:11:07.920Z,37.60
2023-06-26T02:12:13.405Z,37.56
2023-06-26T02:13:17.099Z,37.69
2023-06-26T02:14:20.743Z,37.49
2023-06-26T02:15:24.511Z,37.53
2023-06-26T02:16:28.228Z,37.43
2023-06-26T02:17:31.928Z,37.45
2023-06-26T02:18:35.647Z,37.39
2023-06-26T02:19:39.340Z,37.60
2023-06-26T02:20:43.027Z,37.55
2023-06-26T02:21:46.719Z,37.30
2023-06-26T02:22:50.513Z,37.46
2023-06-26T02:23:54.218Z,37.07
2023-06-26T02:24:57.854Z,36.98
2023-06-26T02:26:01.981Z,37.01
2023-06-26T02:27:05.991Z,37.14
2023-06-26T02:28:11.483Z,37.41
2023-06-26T02:29:15.303Z,37.13
2023-06-26T02:30:19.124Z,37.24
2023-06-26T02:31:22.858Z,37.07
2023-06-26T02:32:26.664Z,37.21
2023-06-26T02:33:30.357Z,36.93
2023-06-26T02:34:34.038Z,36.57
2023-06-26T02:35:37.854Z,36.89
2023-06-26T02:36:41.555Z,36.92
2023-06-26T02:37:45.307Z,36.92
2023-06-26T02:38:49.148Z,36.92
2023-06-26T02:39:52.750Z,37.01
2023-06-26T02:40:56.400Z,37.11
2023-06-26T02:41:59.989Z,36.99
2023-06-26T02:43:03.708Z,37.14
2023-06-26T02:44:09.078Z,36.54
2023-06-26T02:45:12.729Z,37.01
2023-06-26T02:46:16.411Z,37.00
2023-06-26T02:47:20.196Z,36.79
2023-06-26T02:48:23.909Z,36.90
2023-06-26T02:49:27.771Z,36.82
2023-06-26T02:50:31.418Z,36.83
2023-06-26T02:51:35.257Z,36.90
2023-06-26T02:52:38.950Z,36.74
2023-06-26T02:53:42.776Z,36.87
2023-06-26T02:54:46.698Z,36.81
2023-06-26T02:55:50.368Z,36.94
2023-06-26T02:56:53.979Z,36.61
2023-06-26T02:57:57.626Z,36.51
2023-06-26T02:59:01.402Z,36.53
2023-06-26T03:00:07.773Z,36.27
2023-06-26T03:01:11.515Z,36.86
2023-06-26T03:02:15.229Z,36.32
2023-06-26T03:03:19.013Z,36.26
2023-06-26T03:04:22.883Z,36.89
2023-06-26T03:05:26.828Z,36.38
2023-06-26T03:06:30.499Z,36.59
2023-06-26T03:07:34.197Z,36.28
2023-06-26T03:08:39.148Z,36.45
2023-06-26T03:09:42.789Z,35.84
2023-06-26T03:10:46.463Z,36.02
2023-06-26T03:11:50.173Z,36.11
2023-06-26T03:12:53.852Z,36.26
2023-06-26T03:13:57.581Z,35.72
2023-06-26T03:15:01.296Z,36.07
2023-06-26T03:16:06.938Z,36.26
2023-06-26T03:17:10.700Z,36.36
2023-06-26T03:18:14.479Z,36.38
2023-06-26T03:19:18.190Z,36.25
2023-06-26T03:20:21.876Z,36.20
2023-06-26T03:21:25.616Z,36.26
2023-06-26T03:22:29.354Z,36.57
2023-06-26T03:23:33.285Z,36.00
2023-06-26T03:24:37.017Z,35.90
2023-06-26T03:25:40.739Z,35.76
2023-06-26T03:26:44.438Z,35.77
2023-06-26T03:27:48.126Z,35.94
2023-06-26T03:28:51.848Z,36.10
2023-06-26T03:29:55.588Z,35.77
2023-06-26T03:30:59.549Z,35.69
2023-06-26T03:32:05.158Z,35.72
2023-06-26T03:33:08.809Z,35.99
2023-06-26T03:34:12.449Z,35.59
2023-06-26T03:35:16.182Z,35.67
2023-06-26T03:36:19.952Z,35.54
2023-06-26T03:37:23.774Z,35.58
2023-06-26T03:38:27.491Z,35.54
2023-06-26T03:39:31.225Z,35.16
2023-06-26T03:40:34.954Z,35.22
2023-06-26T03:41:38.605Z,35.22
2023-06-26T03:42:42.400Z,35.09
2023-06-26T03:43:46.067Z,34.81
2023-06-26T03:44:49.820Z,35.32
2023-06-26T03:45:53.499Z,35.23
2023-06-26T03:46:57.166Z,35.08
2023-06-26T03:48:02.549Z,35.28
2023-06-26T03:49:07.078Z,34.85
2023-06-26T03:50:12.562Z,34.68
2023-06-26T03:51:16.257Z,35.09
2023-06-26T03:52:19.916Z,35.16
2023-06-26T03:53:23.559Z,34.51
2023-06-26T03:54:27.280Z,34.81
2023-06-26T03:55:30.945Z,35.06
2023-06-26T03:56:34.602Z,35.06
2023-06-26T03:57:38.388Z,34.69
2023-06-26T03:58:42.086Z,34.90
2023-06-26T03:59:45.786Z,35.07
2023-06-26T04:00:49.679Z,35.16
2023-06-26T04:01:53.697Z,34.49
2023-06-26T04:02:57.567Z,34.73
2023-06-26T04:04:03.039Z,34.51
2023-06-26T04:05:07.194Z,34.85
2023-06-26T04:06:10.893Z,34.75
2023-06-26T04:07:14.620Z,35.17
2023-06-26T04:08:18.327Z,35.06
2023-06-26T04:09:22.090Z,34.96
2023-06-26T04:10:25.910Z,34.87
2023-06-26T04:11:29.685Z,35.04
2023-06-26T04:12:33.484Z,34.95
2023-06-26T04:13:37.181Z,35.22
2023-06-26T04:14:40.857Z,35.30
2023-06-26T04:15:44.516Z,35.02
2023-06-26T04:16:48.202Z,34.60
2023-06-26T04:17:51.946Z,35.31
2023-06-26T04:18:55.635Z,34.78
2023-06-26T04:20:00.914Z,34.72
2023-06-26T04:21:09.529Z,34.58
2023-06-26T04:22:13.254Z,34.73
2023-06-26T04:23:16.996Z,34.74
2023-06-26T04:24:20.629Z,34.89
2023-06-26T04:25:24.388Z,34.61
2023-06-26T04:26:28.067Z,34.62
2023-06-26T04:27:33.566Z,34.37
2023-06-26T04:28:38.997Z,34.26
2023-06-26T04:29:42.664Z,34.55
2023-06-26T04:30:46.234Z,34.11
2023-06-26T04:31:49.950Z,34.58
2023-06-26T04:32:53.760Z,34.06
2023-06-26T04:33:57.538Z,34.40
2023-06-26T04:35:02.814Z,34.34
2023-06-26T04:36:06.936Z,34.48
2023-06-26T04:37:10.625Z,34.34
2023-06-26T04:38:14.374Z,34.34
2023-06-26T04:40:38.564Z,34.14
2023-06-26T04:41:42.475Z,34.09
2023-06-26T04:42:46.199Z,34.23
2023-06-26T04:43:49.968Z,34.31
2023-06-26T04:44:53.749Z,34.14
2023-06-26T04:45:57.972Z,33.91
2023-06-26T04:47:01.853Z,34.26
2023-06-26T04:48:06.209Z,33.82
2023-06-26T04:49:10.030Z,33.85
2023-06-26T04:50:15.650Z,33.55
2023-06-26T04:51:19.390Z,33.80
2023-06-26T04:52:23.233Z,33.55
2023-06-26T04:53:27.329Z,33.52
2023-06-26T04:54:31.090Z,33.84
2023-06-26T04:55:34.959Z,32.67
2023-06-26T04:56:39.170Z,33.62
2023-06-26T04:57:42.888Z,33.00
2023-06-26T04:58:46.647Z,33.13
2023-06-26T04:59:50.449Z,32.97
2023-06-26T05:00:54.242Z,33.56
2023-06-26T05:01:58.009Z,32.94
2023-06-26T05:03:02.056Z,33.48
2023-06-26T05:04:06.127Z,32.84
2023-06-26T05:05:10.279Z,32.55
2023-06-26T05:06:15.585Z,31.59
2023-06-26T05:07:19.359Z,32.33
2023-06-26T05:08:24.938Z,32.95
2023-06-26T05:09:28.687Z,32.38
2023-06-26T05:10:32.358Z,32.82
2023-06-26T05:11:36.144Z,32.40
2023-06-26T05:12:39.872Z,32.31
2023-06-26T05:13:43.615Z,32.67
2023-06-26T05:14:47.246Z,32.23
2023-06-26T05:15:51.532Z,32.03
2023-06-26T05:16:55.250Z,31.84
2023-06-26T05:17:59.081Z,31.60
2023-06-26T05:19:03.153Z,31.73
2023-06-26T05:20:07.579Z,31.31
2023-06-26T05:21:11.892Z,31.94
2023-06-26T05:22:18.681Z,31.45
2023-06-26T05:23:22.698Z,31.30
2023-06-26T05:24:27.391Z,31.05
2023-06-26T05:25:31.960Z,31.34
2023-06-26T05:26:36.283Z,31.17
2023-06-26T05:27:40.780Z,31.46
2023-06-26T05:28:45.202Z,31.80
2023-06-26T05:29:49.477Z,31.99
2023-06-26T05:30:56.647Z,31.81
2023-06-26T05:32:01.281Z,31.31
2023-06-26T05:33:05.770Z,31.96
2023-06-26T05:34:12.377Z,31.62
2023-06-26T05:35:17.737Z,31.98
2023-06-26T05:36:22.209Z,31.73
2023-06-26T05:37:30.057Z,31.31
2023-06-26T05:38:34.398Z,32.05
2023-06-26T05:39:38.779Z,32.08
2023-06-26T05:40:43.221Z,32.05
2023-06-26T05:41:47.715Z,31.68
2023-06-26T05:42:52.138Z,31.97
2023-06-26T05:43:55.866Z,32.43
2023-06-26T05:44:59.632Z,32.43
2023-06-26T05:46:03.536Z,32.04
2023-06-26T05:47:07.573Z,31.94
2023-06-26T05:48:11.576Z,32.35
2023-06-26T05:49:15.596Z,32.05
2023-06-26T05:50:20.893Z,32.03
2023-06-26T05:51:25.242Z,32.00
2023-06-26T05:52:31.438Z,31.87
2023-06-26T05:53:35.928Z,31.96
2023-06-26T05:54:40.321Z,32.20
2023-06-26T05:55:44.716Z,32.38
2023-06-26T05:56:49.829Z,32.54
2023-06-26T05:57:54.438Z,32.44
2023-06-26T05:58:58.466Z,31.98
2023-06-26T06:00:02.783Z,31.96
2023-06-26T06:01:06.661Z,31.59
2023-06-26T06:02:10.552Z,31.76
2023-06-26T06:03:14.443Z,32.04
2023-06-26T06:04:18.454Z,32.52
2023-06-26T06:05:22.328Z,31.98
2023-06-26T06:06:26.156Z,32.38
2023-06-26T06:07:31.631Z,31.45
2023-06-26T06:08:35.415Z,32.13
2023-06-26T06:09:39.338Z,31.93
2023-06-26T06:10:43.122Z,31.96
2023-06-26T06:11:46.805Z,32.39
2023-06-26T06:12:50.498Z,32.22
2023-06-26T06:13:54.366Z,32.12
2023-06-26T06:14:58.620Z,32.03
2023-06-26T06:16:02.434Z,32.19
2023-06-26T06:17:06.432Z,32.15
2023-06-26T06:18:10.267Z,32.38
2023-06-26T06:19:13.964Z,32.05
2023-06-26T06:20:19.087Z,32.48
2023-06-26T06:21:22.949Z,32.34
2023-06-26T06:22:26.806Z,32.44
2023-06-26T06:23:32.157Z,32.44
2023-06-26T06:24:35.909Z,32.18
2023-06-26T06:25:39.664Z,31.79
2023-06-26T06:26:43.324Z,32.34
2023-06-26T06:27:47.162Z,32.66
2023-06-26T06:28:50.831Z,32.59
2023-06-26T06:29:54.549Z,32.66
2023-06-26T06:30:58.408Z,32.08
2023-06-26T06:32:02.213Z,32.04
2023-06-26T06:33:06.105Z,32.75
2023-06-26T06:34:09.933Z,32.40
2023-06-26T06:35:14.103Z,32.35
2023-06-26T06:36:17.965Z,32.43
2023-06-26T06:37:21.771Z,32.57
2023-06-26T06:38:25.567Z,32.47
2023-06-26T06:39:30.974Z,32.33
2023-06-26T06:40:34.855Z,32.27
2023-06-26T06:41:38.666Z,32.72
2023-06-26T06:42:42.488Z,32.22
2023-06-26T06:43:46.376Z,32.40
2023-06-26T06:44:50.209Z,32.12
2023-06-26T06:45:53.904Z,32.12
2023-06-26T06:46:57.684Z,32.77
2023-06-26T06:48:01.651Z,32.66
2023-06-26T06:49:05.393Z,32.69
2023-06-26T06:50:09.791Z,32.46
2023-06-26T06:51:13.599Z,32.26
2023-06-26T06:52:17.503Z,32.42
2023-06-26T06:53:21.505Z,32.16
2023-06-26T06:54:30.326Z,32.31
2023-06-26T06:55:34.107Z,32.52
2023-06-26T06:56:37.883Z,31.81
2023-06-26T06:57:42.290Z,31.69
2023-06-26T06:58:46.022Z,31.94
2023-06-26T06:59:50.065Z,32.24
2023-06-26T07:00:53.843Z,31.84
2023-06-26T07:01:57.663Z,31.61
2023-06-26T07:03:01.630Z,32.08
2023-06-26T07:04:05.895Z,32.11
2023-06-26T07:05:10.396Z,31.52
2023-06-26T07:06:14.206Z,32.20
2023-06-26T07:07:20.898Z,31.23
2023-06-26T07:08:24.687Z,31.95
2023-06-26T07:09:28.409Z,31.38
2023-06-26T07:10:33.901Z,32.00
2023-06-26T07:11:37.614Z,31.49
2023-06-26T07:12:41.496Z,31.60
2023-06-26T07:13:48.100Z,31.57
2023-06-26T07:14:51.755Z,31.88
2023-06-26T07:15:55.654Z,31.87
2023-06-26T07:16:59.614Z,31.42
2023-06-26T07:18:03.552Z,31.51
2023-06-26T07:19:07.463Z,31.82
2023-06-26T07:20:11.927Z,32.00
2023-06-26T07:21:15.674Z,32.07
2023-06-26T07:22:19.367Z,31.43
2023-06-26T07:23:23.021Z,31.38
2023-06-26T07:24:26.857Z,31.84
2023-06-26T07:25:32.288Z,31.83
2023-06-26T07:26:44.373Z,32.43
2023-06-26T07:27:49.270Z,31.51
2023-06-26T07:28:53.003Z,31.99
2023-06-26T07:29:56.794Z,31.76
2023-06-26T07:31:00.536Z,32.08
2023-06-26T07:32:04.329Z,31.86
2023-06-26T07:33:08.065Z,31.62
2023-06-26T07:34:11.808Z,31.22
2023-06-26T07:35:15.658Z,31.94
2023-06-26T07:36:19.541Z,31.85
2023-06-26T07:37:23.350Z,30.74
2023-06-26T07:38:27.050Z,31.10
2023-06-26T07:39:30.802Z,30.90
2023-06-26T07:40:36.424Z,30.72
2023-06-26T07:41:40.290Z,31.06
2023-06-26T07:42:44.091Z,30.85
2023-06-26T07:43:47.824Z,31.42
2023-06-26T07:44:51.731Z,31.47
2023-06-26T07:45:55.473Z,31.80
2023-06-26T07:46:59.325Z,31.74
2023-06-26T07:48:03.087Z,31.88
2023-06-26T07:49:06.908Z,32.07
2023-06-26T07:50:11.092Z,31.74
2023-06-26T07:51:14.875Z,31.25
2023-06-26T07:52:19.624Z,31.61
2023-06-26T07:53:23.321Z,31.52
2023-06-26T07:54:27.073Z,31.64
2023-06-26T07:55:30.847Z,32.14
2023-06-26T07:56:53.608Z,31.87
2023-06-26T07:57:57.399Z,31.68
2023-06-26T07:59:01.150Z,31.40
2023-06-26T08:00:05.334Z,31.92
2023-06-26T08:01:09.140Z,31.76
2023-06-26T08:02:12.983Z,31.88
2023-06-26T08:03:29.692Z,31.01
2023-06-26T08:04:38.683Z,31.62
2023-06-26T08:05:42.712Z,31.33
2023-06-26T08:06:46.680Z,31.99
2023-06-26T08:07:50.345Z,31.70
2023-06-26T08:08:54.085Z,31.46
2023-06-26T08:09:57.885Z,31.00
2023-06-26T08:11:01.759Z,31.98
2023-06-26T08:12:08.621Z,31.16
2023-06-26T08:13:13.852Z,31.56
2023-06-26T08:14:18.000Z,31.51
2023-06-26T08:15:21.702Z,32.04
2023-06-26T08:16:25.523Z,32.04
2023-06-26T08:17:30.642Z,31.78
2023-06-26T08:18:34.456Z,31.37
2023-06-26T08:19:38.173Z,31.27
2023-06-26T08:20:41.965Z,31.72
2023-06-26T08:21:46.485Z,31.06
2023-06-26T08:22:50.303Z,31.87
2023-06-26T08:23:54.108Z,30.93
2023-06-26T08:24:57.842Z,31.70
2023-06-26T08:26:01.476Z,31.05
2023-06-26T08:27:07.036Z,31.65
2023-06-26T08:28:10.878Z,31.78
2023-06-26T08:29:14.752Z,31.53
2023-06-26T08:30:18.945Z,31.42
2023-06-26T08:31:22.829Z,31.46
2023-06-26T08:32:26.680Z,31.56
2023-06-26T08:33:30.647Z,31.32
2023-06-26T08:34:34.317Z,31.70
2023-06-26T08:35:38.036Z,31.63
2023-06-26T08:36:41.737Z,31.25
2023-06-26T08:37:45.444Z,31.11
2023-06-26T08:38:49.153Z,31.51
2023-06-26T08:39:52.903Z,31.34
2023-06-26T08:40:56.613Z,31.31
2023-06-26T08:42:00.371Z,31.18
2023-06-26T08:43:05.915Z,31.41
2023-06-26T08:44:09.785Z,31.51
2023-06-26T08:45:13.705Z,31.80
2023-06-26T08:46:17.569Z,31.10
2023-06-26T08:47:23.609Z,31.24
2023-06-26T08:48:27.947Z,31.33
2023-06-26T08:49:39.426Z,31.11
2023-06-26T08:50:44.721Z,31.31
2023-06-26T08:51:57.971Z,30.21
2023-06-26T08:53:09.792Z,30.11
2023-06-26T08:54:17.518Z,30.37
2023-06-26T08:55:25.472Z,30.39
2023-06-26T08:56:34.195Z,31.05
2023-06-26T08:57:38.332Z,30.46
2023-06-26T08:58:44.385Z,30.27
2023-06-26T08:59:48.931Z,31.15
2023-06-26T09:00:53.695Z,30.62
2023-06-26T09:01:57.911Z,30.44
2023-06-26T09:03:01.898Z,30.44
2023-06-26T09:04:06.197Z,31.26
2023-06-26T09:05:10.130Z,31.28
2023-06-26T09:06:14.044Z,30.87
2023-06-26T09:07:20.577Z,31.27
2023-06-26T09:08:24.395Z,31.18
2023-06-26T09:09:28.127Z,30.94
2023-06-26T09:10:31.818Z,30.89
2023-06-26T09:11:35.637Z,31.36
2023-06-26T09:12:39.650Z,30.99
2023-06-26T09:13:46.077Z,30.74
2023-06-26T09:14:50.262Z,30.89
2023-06-26T09:15:56.442Z,30.93
2023-06-26T09:17:01.232Z,31.38
2023-06-26T09:18:07.458Z,30.87
2023-06-26T09:19:14.612Z,30.77
2023-06-26T09:20:18.519Z,30.96
2023-06-26T09:21:23.586Z,31.02
2023-06-26T09:22:28.345Z,31.47
2023-06-26T09:23:33.179Z,31.63
2023-06-26T09:24:37.045Z,31.36
2023-06-26T09:25:42.673Z,30.62
2023-06-26T09:26:46.927Z,31.04
2023-06-26T09:27:50.904Z,31.59
2023-06-26T09:28:57.058Z,31.56
2023-06-26T09:30:00.966Z,31.42
2023-06-26T09:31:06.074Z,30.94
2023-06-26T09:32:11.810Z,31.56
2023-06-26T09:33:19.255Z,31.49
2023-06-26T09:34:22.977Z,31.19
2023-06-26T09:35:29.795Z,31.48
2023-06-26T09:36:37.188Z,31.31
2023-06-26T09:37:43.132Z,31.63
2023-06-26T09:38:46.848Z,31.31
2023-06-26T09:39:50.620Z,31.68
2023-06-26T09:40:54.481Z,31.40
2023-06-26T09:41:58.272Z,31.42
2023-06-26T09:43:05.600Z,31.45
2023-06-26T09:44:13.487Z,31.36
2023-06-26T09:45:26.303Z,31.20
2023-06-26T09:46:30.859Z,31.78
2023-06-26T09:47:36.873Z,31.53
2023-06-26T09:48:40.728Z,31.81
2023-06-26T09:49:44.746Z,31.87
2023-06-26T09:51:05.226Z,32.08
2023-06-26T09:52:15.441Z,31.98
2023-06-26T09:53:19.172Z,31.63
2023-06-26T09:54:25.452Z,31.74
2023-06-26T09:55:29.386Z,31.73
2023-06-26T09:56:34.419Z,31.88
2023-06-26T09:57:40.147Z,31.59
2023-06-26T09:58:45.487Z,31.51
2023-06-26T09:59:51.686Z,31.47
2023-06-26T10:00:55.698Z,32.02
2023-06-26T10:02:02.909Z,31.51
2023-06-26T10:03:07.057Z,31.94
2023-06-26T10:04:11.331Z,32.01
2023-06-26T10:05:15.597Z,31.84
2023-06-26T10:06:21.604Z,31.75
2023-06-26T10:07:26.480Z,31.65
2023-06-26T10:08:32.234Z,31.85
2023-06-26T10:09:39.457Z,31.74
2023-06-26T10:10:44.422Z,32.09
2023-06-26T10:11:57.448Z,32.20
2023-06-26T10:13:06.364Z,31.85
2023-06-26T10:14:17.644Z,32.13
2023-06-26T10:15:25.214Z,32.01
2023-06-26T10:16:30.727Z,31.80
2023-06-26T10:17:38.737Z,32.13
2023-06-26T10:18:44.241Z,31.79
2023-06-26T10:19:49.609Z,31.90
2023-06-26T10:20:58.115Z,31.65
2023-06-26T10:22:03.826Z,32.22
2023-06-26T10:23:09.566Z,32.23
2023-06-26T10:24:15.514Z,32.30
2023-06-26T10:25:21.266Z,32.31
2023-06-26T10:26:26.336Z,32.30
2023-06-26T10:27:35.547Z,32.40
2023-06-26T10:28:40.673Z,32.15
2023-06-26T10:29:46.604Z,32.09
2023-06-26T10:30:54.015Z,32.47
2023-06-26T10:32:02.127Z,32.40
2023-06-26T10:33:10.813Z,32.31
2023-06-26T10:34:15.221Z,32.08
2023-06-26T10:35:19.355Z,32.28
2023-06-26T10:36:30.843Z,31.98
2023-06-26T10:37:44.171Z,32.25
2023-06-26T10:38:56.620Z,32.37
2023-06-26T10:40:02.372Z,32.19
2023-06-26T10:41:13.085Z,32.48
2023-06-26T10:42:17.397Z,32.20
2023-06-26T10:43:21.269Z,32.50
2023-06-26T10:44:25.208Z,32.71
2023-06-26T10:45:31.004Z,32.21
2023-06-26T10:46:51.506Z,32.55
2023-06-26T10:47:55.454Z,32.64
2023-06-26T10:49:00.692Z,32.71
2023-06-26T10:50:23.560Z,32.65
2023-06-26T10:51:28.394Z,32.37
2023-06-26T10:52:32.278Z,32.57
2023-06-26T10:53:36.125Z,32.15
2023-06-26T10:54:40.065Z,32.23
2023-06-26T10:55:57.885Z,32.25
2023-06-26T10:57:03.282Z,32.30
2023-06-26T10:58:27.082Z,32.60
2023-06-26T10:59:32.780Z,32.48
2023-06-26T11:00:36.870Z,32.71
2023-06-26T11:01:45.268Z,32.72
2023-06-26T11:02:52.256Z,32.52
2023-06-26T11:04:08.752Z,32.33
2023-06-26T11:05:12.649Z,32.59
2023-06-26T11:06:17.433Z,32.61
2023-06-26T11:07:22.848Z,32.44
2023-06-26T11:08:46.719Z,32.07
2023-06-26T11:10:01.229Z,32.28
2023-06-26T11:11:05.241Z,32.53
2023-06-26T11:12:09.649Z,32.54
2023-06-26T11:13:14.194Z,32.52
2023-06-26T11:14:18.831Z,32.44
2023-06-26T11:15:22.937Z,32.77
2023-06-26T11:16:28.452Z,32.51
2023-06-26T11:17:34.873Z,32.13
2023-06-26T11:18:39.326Z,32.52
2023-06-26T11:19:45.674Z,32.46
2023-06-26T11:20:49.549Z,32.64
2023-06-26T11:21:54.773Z,32.57
2023-06-26T11:22:59.782Z,32.50
2023-06-26T11:24:06.186Z,32.34
2023-06-26T11:25:11.209Z,32.70
2023-06-26T11:26:18.949Z,32.52
2023-06-26T11:27:22.962Z,32.51
2023-06-26T11:28:26.939Z,32.72
2023-06-26T11:29:30.892Z,32.34
2023-06-26T11:30:34.687Z,32.50
2023-06-26T11:31:39.524Z,32.68
2023-06-26T11:32:45.043Z,32.60
2023-06-26T11:33:49.243Z,32.70
2023-06-26T11:34:53.742Z,32.46
2023-06-26T11:35:57.763Z,32.76
2023-06-26T11:37:01.526Z,33.11
2023-06-26T11:38:05.802Z,32.73
2023-06-26T11:39:10.226Z,32.78
2023-06-26T11:40:20.832Z,32.78
2023-06-26T11:41:24.957Z,32.72
2023-06-26T11:42:29.411Z,32.73
2023-06-26T11:43:33.256Z,32.87
2023-06-26T11:44:43.668Z,32.84
2023-06-26T11:45:47.521Z,32.77
2023-06-26T11:46:54.458Z,32.95
2023-06-26T11:48:00.861Z,32.75
2023-06-26T11:49:06.203Z,32.75
2023-06-26T11:50:17.648Z,33.03
2023-06-26T11:51:21.677Z,33.10
2023-06-26T11:52:25.576Z,33.02
2023-06-26T11:53:29.508Z,32.90
2023-06-26T11:54:33.582Z,32.88
2023-06-26T11:55:44.305Z,32.97
2023-06-26T11:56:55.885Z,33.11
2023-06-26T11:58:00.252Z,33.02
2023-06-26T11:59:06.743Z,33.22
2023-06-26T12:00:16.077Z,33.29
2023-06-26T12:01:20.133Z,33.32
2023-06-26T12:02:24.437Z,33.25
2023-06-26T12:03:31.370Z,33.23
2023-06-26T12:04:36.114Z,33.27
2023-06-26T12:05:41.467Z,33.08
2023-06-26T12:06:48.265Z,33.35
2023-06-26T12:07:52.836Z,33.32
2023-06-26T12:08:57.641Z,33.26
2023-06-26T12:10:02.425Z,33.08
2023-06-26T12:11:06.459Z,33.35
2023-06-26T12:12:12.682Z,33.52
2023-06-26T12:13:16.842Z,33.54
2023-06-26T12:14:22.363Z,33.84
2023-06-26T12:15:26.371Z,33.58
2023-06-26T12:16:31.357Z,33.64
2023-06-26T12:17:35.211Z,33.59
2023-06-26T12:18:40.718Z,34.21
2023-06-26T12:19:46.857Z,35.45
2023-06-26T12:20:50.812Z,34.41
2023-06-26T12:21:54.706Z,34.11
2023-06-26T12:22:58.653Z,34.39
2023-06-26T12:24:05.743Z,34.38
2023-06-26T12:25:10.496Z,34.79
2023-06-26T12:26:21.338Z,36.50
2023-06-26T12:27:25.948Z,34.62
2023-06-26T12:28:29.767Z,34.63
2023-06-26T12:29:35.510Z,35.39
2023-06-26T12:30:39.606Z,34.82
2023-06-26T12:31:44.461Z,35.01
2023-06-26T12:32:48.849Z,35.12
2023-06-26T12:33:55.048Z,36.31
2023-06-26T12:34:59.911Z,35.30
2023-06-26T12:36:03.973Z,35.07
2023-06-26T12:37:10.317Z,35.85
2023-06-26T12:38:14.334Z,35.27
2023-06-26T12:39:18.731Z,35.51
2023-06-26T12:40:22.821Z,35.72
2023-06-26T12:41:27.411Z,35.76
2023-06-26T12:42:34.936Z,35.49
2023-06-26T12:43:41.070Z,35.82
2023-06-26T12:44:45.062Z,35.80
2023-06-26T12:45:48.929Z,35.80
2023-06-26T12:46:58.443Z,36.75
2023-06-26T12:48:10.804Z,36.14
2023-06-26T12:49:30.546Z,36.44
2023-06-26T12:50:45.257Z,37.11
2023-06-26T12:51:49.206Z,35.95
2023-06-26T12:52:53.328Z,36.00
2023-06-26T12:53:57.235Z,35.69
2023-06-26T12:55:01.403Z,36.12
2023-06-26T12:56:08.130Z,35.90
2023-06-26T12:57:12.510Z,36.14
2023-06-26T12:58:16.410Z,36.03
2023-06-26T12:59:20.364Z,36.41
2023-06-26T13:00:24.300Z,36.12
2023-06-26T13:01:28.314Z,36.59
2023-06-26T13:02:32.384Z,36.08
2023-06-26T13:03:36.375Z,36.40
2023-06-26T13:04:42.010Z,37.10
2023-06-26T13:05:45.968Z,36.41
2023-06-26T13:06:49.936Z,36.58
2023-06-26T13:07:53.917Z,36.61
2023-06-26T13:08:57.837Z,36.70
2023-06-26T13:10:01.733Z,36.94
2023-06-26T13:11:05.616Z,36.90
2023-06-26T13:12:10.176Z,37.04
2023-06-26T13:13:14.472Z,37.00
2023-06-26T13:14:18.442Z,37.14
2023-06-26T13:15:22.467Z,37.13
2023-06-26T13:16:26.365Z,37.24
2023-06-26T13:17:30.159Z,37.21
2023-06-26T13:18:33.966Z,37.19
2023-06-26T13:19:37.878Z,37.49
2023-06-26T13:20:43.442Z,37.56
2023-06-26T13:21:47.355Z,37.27
2023-06-26T13:22:51.315Z,37.76
2023-06-26T13:23:55.300Z,37.60
2023-06-26T13:24:59.441Z,37.79
2023-06-26T13:26:05.187Z,37.49
2023-06-26T13:27:09.440Z,37.74
2023-06-26T13:28:13.310Z,37.73
2023-06-26T13:29:17.275Z,37.76
2023-06-26T13:30:21.282Z,37.95
2023-06-26T13:31:25.272Z,37.83
2023-06-26T13:32:29.231Z,38.00
2023-06-26T13:33:33.416Z,38.35
2023-06-26T13:34:37.582Z,37.88
2023-06-26T13:35:43.516Z,38.21
2023-06-26T13:36:47.411Z,38.39
2023-06-26T13:37:51.139Z,38.29
2023-06-26T13:38:55.103Z,38.28
2023-06-26T13:39:59.039Z,38.39
2023-06-26T13:41:03.386Z,38.48
2023-06-26T13:42:07.983Z,38.48
2023-06-26T13:43:12.323Z,38.60
2023-06-26T13:44:31.827Z,38.59
2023-06-26T13:45:40.910Z,38.84
2023-06-26T13:46:44.947Z,38.64
2023-06-26T13:47:48.876Z,38.99
2023-06-26T13:48:52.747Z,38.85
2023-06-26T13:49:56.623Z,38.80
2023-06-26T13:51:02.212Z,38.93
2023-06-26T13:52:06.645Z,38.90
2023-06-26T13:53:10.494Z,38.87
2023-06-26T13:54:14.497Z,39.01
2023-06-26T13:55:18.941Z,39.07
2023-06-26T13:56:22.961Z,39.16
2023-06-26T13:57:26.848Z,39.17
2023-06-26T13:58:30.575Z,39.58